Tarumirim, Brazil
Current Conditions -  °F | °C
As of 8:00 PM on Monday 20 Oct 2014 (Local Time) from SBIP Reporting Station
Smoke Smoke  
Wind Chill: 86°   Ceiling: Unl
Heat Index: 87°   Visibility: 3mi
Dew Point: 64°   Wind: 7mph
Humidity: 48%   Direction: 250°WSW
Pressure: 29.8"   Gusts: NA
Location:  19.28°S, 42.01°W
Report Text: SBIP 202200Z 25006KT 5000 0800W FU NSC 30/18 Q1009
Loading
Personal Weather Stations






























Interactive Weather Map
Tropical Storm Tracking
New forecast layout! Learn more

10-Day Weather Forecast

Advertisements
Track Severe Weather on mobile